sensor_id;sensor_type;location;lat;lon;timestamp;pressure;altitude;pressure_sealevel;temperature;humidity
7754;BME280;3921;42.266;23.122;2023-02-28T00:00:13;96080.94;;;11.27;87.31
7754;BME280;3921;42.266;23.122;2023-02-28T00:02:42;95955.91;;;10.35;86.73
7754;BME280;3921;42.266;23.122;2023-02-28T00:05:11;96111.94;;;11.23;87.34
7754;BME280;3921;42.266;23.122;2023-02-28T00:07:38;96013.78;;;10.69;87.11
7754;BME280;3921;42.266;23.122;2023-02-28T00:10:08;96085.09;;;11.22;86.63
7754;BME280;3921;42.266;23.122;2023-02-28T00:12:38;95947.50;;;10.26;87.40
7754;BME280;3921;42.266;23.122;2023-02-28T00:15:06;95893.88;;;10.05;87.21
7754;BME280;3921;42.266;23.122;2023-02-28T00:17:33;95993.66;;;10.51;88.29
7754;BME280;3921;42.266;23.122;2023-02-28T00:20:01;95934.03;;;10.01;87.76
7754;BME280;3921;42.266;23.122;2023-02-28T00:22:37;95867.00;;;9.74;86.50
7754;BME280;3921;42.266;23.122;2023-02-28T00:25:06;95787.38;;;9.28;86.55
7754;BME280;3921;42.266;23.122;2023-02-28T00:27:33;96116.94;;;11.12;86.71
7754;BME280;3921;42.266;23.122;2023-02-28T00:30:02;95744.69;;;9.02;86.72
7754;BME280;3921;42.266;23.122;2023-02-28T00:32:29;96103.53;;;11.04;87.55
7754;BME280;3921;42.266;23.122;2023-02-28T00:34:56;96103.50;;;10.93;87.94
7754;BME280;3921;42.266;23.122;2023-02-28T00:37:23;96004.50;;;10.41;88.28
7754;BME280;3921;42.266;23.122;2023-02-28T00:39:50;96098.47;;;10.90;88.47
7754;BME280;3921;42.266;23.122;2023-02-28T00:42:17;96097.66;;;10.96;87.88
7754;BME280;3921;42.266;23.122;2023-02-28T00:44:44;95792.31;;;9.10;87.73
7754;BME280;3921;42.266;23.122;2023-02-28T00:47:13;95896.34;;;9.93;85.68
7754;BME280;3921;42.266;23.122;2023-02-28T00:49:40;96106.00;;;11.01;86.10
7754;BME280;3921;42.266;23.122;2023-02-28T00:52:07;95938.22;;;10.00;85.75
7754;BME280;3921;42.266;23.122;2023-02-28T00:54:34;95759.56;;;8.73;85.86
7754;BME280;3921;42.266;23.122;2023-02-28T00:57:02;95932.31;;;9.88;86.84
7754;BME280;3921;42.266;23.122;2023-02-28T00:59:29;96116.03;;;10.88;85.78
7754;BME280;3921;42.266;23.122;2023-02-28T01:01:56;96006.94;;;10.25;87.04
7754;BME280;3921;42.266;23.122;2023-02-28T01:04:24;96054.75;;;10.48;86.97
7754;BME280;3921;42.266;23.122;2023-02-28T01:06:51;96015.38;;;10.40;86.69
7754;BME280;3921;42.266;23.122;2023-02-28T01:09:19;96076.66;;;10.84;86.85
7754;BME280;3921;42.266;23.122;2023-02-28T01:11:46;96107.72;;;10.96;85.68
7754;BME280;3921;42.266;23.122;2023-02-28T01:14:15;95738.66;;;8.68;85.62
7754;BME280;3921;42.266;23.122;2023-02-28T01:16:43;95918.81;;;9.64;86.86
7754;BME280;3921;42.266;23.122;2023-02-28T01:19:10;95873.66;;;9.66;85.66
7754;BME280;3921;42.266;23.122;2023-02-28T01:21:39;96044.78;;;10.76;84.28
7754;BME280;3921;42.266;23.122;2023-02-28T01:24:06;96080.03;;;10.94;85.28
7754;BME280;3921;42.266;23.122;2023-02-28T01:26:33;96038.88;;;10.54;85.66
7754;BME280;3921;42.266;23.122;2023-02-28T01:29:01;96085.03;;;10.73;85.59
7754;BME280;3921;42.266;23.122;2023-02-28T01:31:28;96033.00;;;10.53;85.75
7754;BME280;3921;42.266;23.122;2023-02-28T01:33:55;95843.50;;;9.47;84.60
7754;BME280;3921;42.266;23.122;2023-02-28T01:36:23;95916.44;;;9.98;83.41
7754;BME280;3921;42.266;23.122;2023-02-28T01:38:52;96079.19;;;10.94;83.59
7754;BME280;3921;42.266;23.122;2023-02-28T01:41:21;96038.88;;;10.60;83.70
7754;BME280;3921;42.266;23.122;2023-02-28T01:44:00;95995.25;;;10.27;84.25
7754;BME280;3921;42.266;23.122;2023-02-28T01:46:30;95820.66;;;8.92;83.88
7754;BME280;3921;42.266;23.122;2023-02-28T01:49:02;96105.94;;;10.70;83.88
7754;BME280;3921;42.266;23.122;2023-02-28T01:51:36;96032.91;;;10.26;85.54
7754;BME280;3921;42.266;23.122;2023-02-28T01:54:10;95533.34;;;7.24;84.31
7754;BME280;3921;42.266;23.122;2023-02-28T01:56:43;96110.13;;;10.68;83.64
7754;BME280;3921;42.266;23.122;2023-02-28T01:59:13;95897.78;;;9.39;83.83
7754;BME280;3921;42.266;23.122;2023-02-28T02:01:41;96058.91;;;10.35;84.27
7754;BME280;3921;42.266;23.122;2023-02-28T02:04:08;95854.16;;;9.11;83.66
7754;BME280;3921;42.266;23.122;2023-02-28T02:06:39;95909.56;;;9.54;83.46
7754;BME280;3921;42.266;23.122;2023-02-28T02:09:11;96006.00;;;10.05;83.58
7754;BME280;3921;42.266;23.122;2023-02-28T02:11:39;95977.50;;;9.94;83.25
7754;BME280;3921;42.266;23.122;2023-02-28T02:14:24;96042.91;;;10.21;84.66
7754;BME280;3921;42.266;23.122;2023-02-28T02:17:15;96080.69;;;10.43;83.61
7754;BME280;3921;42.266;23.122;2023-02-28T02:20:19;96103.25;;;10.30;83.36
7754;BME280;3921;42.266;23.122;2023-02-28T02:23:18;96089.09;;;10.45;82.67
7754;BME280;3921;42.266;23.122;2023-02-28T02:25:54;95823.72;;;8.50;84.30
7754;BME280;3921;42.266;23.122;2023-02-28T02:31:49;96099.94;;;10.37;83.84
7754;BME280;3921;42.266;23.122;2023-02-28T02:34:39;96108.31;;;10.36;82.86
7754;BME280;3921;42.266;23.122;2023-02-28T02:37:14;96004.13;;;9.67;83.82
7754;BME280;3921;42.266;23.122;2023-02-28T02:39:48;96110.84;;;10.43;82.41
7754;BME280;3921;42.266;23.122;2023-02-28T02:42:23;96113.34;;;10.43;81.90
7754;BME280;3921;42.266;23.122;2023-02-28T02:44:58;96020.78;;;9.56;82.41
7754;BME280;3921;42.266;23.122;2023-02-28T02:47:29;95810.09;;;8.25;83.16
7754;BME280;3921;42.266;23.122;2023-02-28T02:50:02;95683.47;;;7.43;82.62
7754;BME280;3921;42.266;23.122;2023-02-28T02:52:36;96107.25;;;10.02;83.49
7754;BME280;3921;42.266;23.122;2023-02-28T02:55:07;95987.72;;;8.92;84.30
7754;BME280;3921;42.266;23.122;2023-02-28T02:57:40;96144.00;;;9.91;84.54
7754;BME280;3921;42.266;23.122;2023-02-28T03:00:11;95808.31;;;8.09;83.66
7754;BME280;3921;42.266;23.122;2023-02-28T03:02:40;96026.59;;;9.49;83.82
7754;BME280;3921;42.266;23.122;2023-02-28T03:05:15;96095.38;;;9.80;82.95
7754;BME280;3921;42.266;23.122;2023-02-28T03:07:45;96137.38;;;9.98;83.24
7754;BME280;3921;42.266;23.122;2023-02-28T03:10:31;96071.97;;;9.76;82.96
7754;BME280;3921;42.266;23.122;2023-02-28T03:19:21;96160.09;;;10.16;82.53
7754;BME280;3921;42.266;23.122;2023-02-28T03:22:01;95969.38;;;8.96;82.73
7754;BME280;3921;42.266;23.122;2023-02-28T03:24:33;96039.06;;;9.40;82.08
7754;BME280;3921;42.266;23.122;2023-02-28T03:27:07;95605.50;;;6.88;82.21
7754;BME280;3921;42.266;23.122;2023-02-28T03:29:39;95873.53;;;8.22;83.00
7754;BME280;3921;42.266;23.122;2023-02-28T03:32:14;95707.59;;;7.35;82.54
7754;BME280;3921;42.266;23.122;2023-02-28T03:34:50;96064.25;;;9.52;82.40
7754;BME280;3921;42.266;23.122;2023-02-28T03:37:24;95849.03;;;7.92;82.63
7754;BME280;3921;42.266;23.122;2023-02-28T03:39:56;95768.53;;;7.50;83.13
7754;BME280;3921;42.266;23.122;2023-02-28T03:42:27;95797.22;;;7.81;82.47
7754;BME280;3921;42.266;23.122;2023-02-28T03:44:56;95986.13;;;9.01;81.95
7754;BME280;3921;42.266;23.122;2023-02-28T03:47:27;96168.38;;;10.09;81.93
7754;BME280;3921;42.266;23.122;2023-02-28T03:49:58;96161.66;;;10.03;81.90
7754;BME280;3921;42.266;23.122;2023-02-28T03:52:33;96106.25;;;9.79;81.83
7754;BME280;3921;42.266;23.122;2023-02-28T03:55:03;96133.16;;;9.97;81.30
7754;BME280;3921;42.266;23.122;2023-02-28T03:57:37;96167.59;;;10.15;81.29
7754;BME280;3921;42.266;23.122;2023-02-28T04:00:08;95821.63;;;8.05;81.19
7754;BME280;3921;42.266;23.122;2023-02-28T04:02:37;95993.56;;;8.89;82.46
7754;BME280;3921;42.266;23.122;2023-02-28T04:05:05;96139.78;;;9.87;83.71
7754;BME280;3921;42.266;23.122;2023-02-28T04:07:34;96138.13;;;9.91;83.81
7754;BME280;3921;42.266;23.122;2023-02-28T04:10:01;96094.47;;;9.64;82.98
7754;BME280;3921;42.266;23.122;2023-02-28T04:12:28;95996.06;;;8.91;83.95
7754;BME280;3921;42.266;23.122;2023-02-28T04:14:55;95971.69;;;8.74;83.97
7754;BME280;3921;42.266;23.122;2023-02-28T04:17:22;96160.72;;;9.91;84.10
7754;BME280;3921;42.266;23.122;2023-02-28T04:19:49;96167.38;;;9.85;84.14
7754;BME280;3921;42.266;23.122;2023-02-28T04:22:16;96076.63;;;9.29;84.56
7754;BME280;3921;42.266;23.122;2023-02-28T04:24:45;96162.44;;;9.93;83.54
7754;BME280;3921;42.266;23.122;2023-02-28T04:27:12;95837.13;;;7.68;83.77
7754;BME280;3921;42.266;23.122;2023-02-28T04:29:41;96170.75;;;9.91;83.54
7754;BME280;3921;42.266;23.122;2023-02-28T04:32:10;96173.34;;;10.03;82.63
7754;BME280;3921;42.266;23.122;2023-02-28T04:34:37;96000.28;;;8.96;81.03
7754;BME280;3921;42.266;23.122;2023-02-28T04:37:04;96210.91;;;9.88;81.05
7754;BME280;3921;42.266;23.122;2023-02-28T04:39:35;95818.72;;;7.65;80.53
7754;BME280;3921;42.266;23.122;2023-02-28T04:42:04;95643.34;;;6.52;80.63
7754;BME280;3921;42.266;23.122;2023-02-28T04:44:31;96183.06;;;9.63;80.17
7754;BME280;3921;42.266;23.122;2023-02-28T04:46:58;95991.53;;;8.53;81.30
7754;BME280;3921;42.266;23.122;2023-02-28T04:49:25;95624.63;;;6.18;81.38
7754;BME280;3921;42.266;23.122;2023-02-28T04:51:53;96001.63;;;8.61;80.46
7754;BME280;3921;42.266;23.122;2023-02-28T04:54:21;96094.88;;;9.14;80.41
7754;BME280;3921;42.266;23.122;2023-02-28T04:56:48;96085.47;;;8.93;81.19
7754;BME280;3921;42.266;23.122;2023-02-28T04:59:16;96061.75;;;8.61;81.64
7754;BME280;3921;42.266;23.122;2023-02-28T05:01:46;95826.38;;;7.06;82.60
7754;BME280;3921;42.266;23.122;2023-02-28T05:04:13;95815.41;;;6.99;82.48
7754;BME280;3921;42.266;23.122;2023-02-28T05:06:41;96076.09;;;8.74;82.46
7754;BME280;3921;42.266;23.122;2023-02-28T05:09:08;96003.69;;;8.24;82.69
7754;BME280;3921;42.266;23.122;2023-02-28T05:11:37;96177.72;;;9.25;83.20
7754;BME280;3921;42.266;23.122;2023-02-28T05:14:06;96182.00;;;9.35;81.92
7754;BME280;3921;42.266;23.122;2023-02-28T05:16:35;96187.75;;;9.26;82.78
7754;BME280;3921;42.266;23.122;2023-02-28T05:19:02;96185.31;;;9.34;82.18
7754;BME280;3921;42.266;23.122;2023-02-28T05:21:31;96151.22;;;8.72;83.22
7754;BME280;3921;42.266;23.122;2023-02-28T05:24:00;96193.66;;;9.31;82.88
7754;BME280;3921;42.266;23.122;2023-02-28T05:26:28;96101.91;;;8.70;82.86
7754;BME280;3921;42.266;23.122;2023-02-28T05:28:56;95959.66;;;7.68;84.30
7754;BME280;3921;42.266;23.122;2023-02-28T05:31:23;95767.91;;;6.34;84.20
7754;BME280;3921;42.266;23.122;2023-02-28T05:33:51;96210.50;;;9.42;82.63
7754;BME280;3921;42.266;23.122;2023-02-28T05:36:19;96205.22;;;9.19;83.90
7754;BME280;3921;42.266;23.122;2023-02-28T05:38:47;96276.28;;;9.19;84.31
7754;BME280;3921;42.266;23.122;2023-02-28T05:41:15;95742.00;;;6.26;83.27
7754;BME280;3921;42.266;23.122;2023-02-28T05:43:43;95766.25;;;6.36;83.92
7754;BME280;3921;42.266;23.122;2023-02-28T05:46:19;96086.38;;;8.27;84.75
7754;BME280;3921;42.266;23.122;2023-02-28T05:48:47;96194.19;;;9.01;84.41
7754;BME280;3921;42.266;23.122;2023-02-28T05:51:16;96226.06;;;9.13;84.17
7754;BME280;3921;42.266;23.122;2023-02-28T05:53:44;96236.19;;;9.22;85.17
7754;BME280;3921;42.266;23.122;2023-02-28T05:56:11;96204.13;;;8.95;85.34
7754;BME280;3921;42.266;23.122;2023-02-28T05:58:38;96205.03;;;9.02;84.64
7754;BME280;3921;42.266;23.122;2023-02-28T06:01:20;96263.22;;;9.46;84.38
7754;BME280;3921;42.266;23.122;2023-02-28T06:03:48;95717.25;;;6.39;83.44
7754;BME280;3921;42.266;23.122;2023-02-28T06:06:17;96152.28;;;8.91;83.86
7754;BME280;3921;42.266;23.122;2023-02-28T06:08:44;95804.19;;;6.70;83.88
7754;BME280;3921;42.266;23.122;2023-02-28T06:11:11;96162.25;;;8.87;84.78
7754;BME280;3921;42.266;23.122;2023-02-28T06:13:38;96242.03;;;9.21;85.21
7754;BME280;3921;42.266;23.122;2023-02-28T06:16:05;96263.13;;;9.40;85.33
7754;BME280;3921;42.266;23.122;2023-02-28T06:18:32;96252.28;;;9.41;84.54
7754;BME280;3921;42.266;23.122;2023-02-28T06:20:59;96278.41;;;9.63;83.38
7754;BME280;3921;42.266;23.122;2023-02-28T06:23:28;96291.69;;;9.51;84.41
7754;BME280;3921;42.266;23.122;2023-02-28T06:25:55;95994.19;;;7.97;84.42
7754;BME280;3921;42.266;23.122;2023-02-28T06:28:24;95754.19;;;6.65;82.87
7754;BME280;3921;42.266;23.122;2023-02-28T06:30:51;96215.34;;;9.26;82.51
7754;BME280;3921;42.266;23.122;2023-02-28T06:33:18;96260.97;;;9.71;82.41
7754;BME280;3921;42.266;23.122;2023-02-28T06:35:46;96242.44;;;9.61;82.58
7754;BME280;3921;42.266;23.122;2023-02-28T06:38:13;96254.28;;;9.74;82.22
7754;BME280;3921;42.266;23.122;2023-02-28T06:40:42;96171.03;;;9.28;81.62
7754;BME280;3921;42.266;23.122;2023-02-28T06:43:09;96090.22;;;8.67;81.69
7754;BME280;3921;42.266;23.122;2023-02-28T06:45:41;95838.97;;;7.16;81.28
7754;BME280;3921;42.266;23.122;2023-02-28T06:48:09;96095.28;;;8.75;81.92
7754;BME280;3921;42.266;23.122;2023-02-28T06:50:36;96088.63;;;8.77;80.65
7754;BME280;3921;42.266;23.122;2023-02-28T06:53:03;95749.00;;;6.48;79.44
7754;BME280;3921;42.266;23.122;2023-02-28T06:55:31;96286.91;;;9.73;80.95
7754;BME280;3921;42.266;23.122;2023-02-28T06:57:59;96190.97;;;9.15;81.59
7754;BME280;3921;42.266;23.122;2023-02-28T07:00:26;96213.66;;;9.25;81.45
7754;BME280;3921;42.266;23.122;2023-02-28T07:02:53;96291.97;;;9.76;80.94
7754;BME280;3921;42.266;23.122;2023-02-28T07:05:21;96185.13;;;9.16;81.57
7754;BME280;3921;42.266;23.122;2023-02-28T07:07:48;95910.91;;;7.39;82.62
7754;BME280;3921;42.266;23.122;2023-02-28T07:10:16;96272.50;;;9.53;83.52
7754;BME280;3921;42.266;23.122;2023-02-28T07:12:43;95983.13;;;7.78;83.47
7754;BME280;3921;42.266;23.122;2023-02-28T07:15:12;96205.25;;;9.22;83.89
7754;BME280;3921;42.266;23.122;2023-02-28T07:17:39;95797.06;;;6.94;82.64
7754;BME280;3921;42.266;23.122;2023-02-28T07:20:07;96081.78;;;8.62;82.56
7754;BME280;3921;42.266;23.122;2023-02-28T07:22:36;95966.66;;;7.94;83.05
7754;BME280;3921;42.266;23.122;2023-02-28T07:25:04;96257.78;;;9.87;82.44
7754;BME280;3921;42.266;23.122;2023-02-28T07:27:49;96247.63;;;9.79;82.65
7754;BME280;3921;42.266;23.122;2023-02-28T07:30:19;96001.47;;;8.48;82.31
7754;BME280;3921;42.266;23.122;2023-02-28T07:32:46;96161.88;;;9.30;83.17
7754;BME280;3921;42.266;23.122;2023-02-28T07:35:13;96287.13;;;9.96;82.67
7754;BME280;3921;42.266;23.122;2023-02-28T07:37:40;96091.31;;;8.94;82.90
7754;BME280;3921;42.266;23.122;2023-02-28T07:40:10;96257.94;;;10.07;83.22
7754;BME280;3921;42.266;23.122;2023-02-28T07:42:38;96069.44;;;8.77;83.24
7754;BME280;3921;42.266;23.122;2023-02-28T07:45:09;96259.56;;;10.02;83.99
7754;BME280;3921;42.266;23.122;2023-02-28T07:47:38;96146.06;;;9.39;84.17
7754;BME280;3921;42.266;23.122;2023-02-28T07:50:06;96197.16;;;9.47;83.58
7754;BME280;3921;42.266;23.122;2023-02-28T07:52:34;96254.59;;;10.08;83.98
7754;BME280;3921;42.266;23.122;2023-02-28T07:55:03;96077.31;;;9.14;82.32
7754;BME280;3921;42.266;23.122;2023-02-28T07:57:30;96269.69;;;10.14;82.37
7754;BME280;3921;42.266;23.122;2023-02-28T07:59:57;96258.13;;;10.27;82.63
7754;BME280;3921;42.266;23.122;2023-02-28T08:02:24;96008.53;;;8.86;81.96
7754;BME280;3921;42.266;23.122;2023-02-28T08:04:53;96185.59;;;9.63;82.97
7754;BME280;3921;42.266;23.122;2023-02-28T08:07:20;96241.28;;;10.15;83.95
7754;BME280;3921;42.266;23.122;2023-02-28T08:09:47;96008.44;;;8.75;83.02
7754;BME280;3921;42.266;23.122;2023-02-28T08:12:17;95933.81;;;8.41;82.68
7754;BME280;3921;42.266;23.122;2023-02-28T08:14:44;96261.56;;;10.41;83.07
7754;BME280;3921;42.266;23.122;2023-02-28T08:17:13;95797.88;;;7.64;83.22
7754;BME280;3921;42.266;23.122;2023-02-28T08:19:40;95970.84;;;8.72;82.48
7754;BME280;3921;42.266;23.122;2023-02-28T08:22:11;95989.38;;;8.90;82.30
7754;BME280;3921;42.266;23.122;2023-02-28T08:24:40;96249.06;;;10.44;82.47
7754;BME280;3921;42.266;23.122;2023-02-28T08:27:37;95743.66;;;7.59;81.47
7754;BME280;3921;42.266;23.122;2023-02-28T08:30:09;95718.34;;;7.30;81.27
7754;BME280;3921;42.266;23.122;2023-02-28T08:32:50;96250.88;;;10.71;81.72
7754;BME280;3921;42.266;23.122;2023-02-28T08:35:17;95924.72;;;8.54;82.54
7754;BME280;3921;42.266;23.122;2023-02-28T08:37:49;95855.16;;;8.23;82.82
7754;BME280;3921;42.266;23.122;2023-02-28T08:40:19;96119.59;;;9.70;81.81
7754;BME280;3921;42.266;23.122;2023-02-28T08:42:47;96023.84;;;9.17;82.86
7754;BME280;3921;42.266;23.122;2023-02-28T08:45:16;95940.94;;;8.91;82.98
7754;BME280;3921;42.266;23.122;2023-02-28T08:47:43;96244.22;;;10.76;82.58
7754;BME280;3921;42.266;23.122;2023-02-28T08:50:10;96257.66;;;10.80;82.57
7754;BME280;3921;42.266;23.122;2023-02-28T08:52:42;95919.91;;;8.75;82.75
7754;BME280;3921;42.266;23.122;2023-02-28T08:55:11;96264.31;;;10.76;84.36
7754;BME280;3921;42.266;23.122;2023-02-28T08:57:41;96089.56;;;9.84;83.90
7754;BME280;3921;42.266;23.122;2023-02-28T09:00:09;96212.38;;;10.74;83.45
7754;BME280;3921;42.266;23.122;2023-02-28T09:02:41;96241.78;;;10.95;83.72
7754;BME280;3921;42.266;23.122;2023-02-28T09:05:11;96160.09;;;10.19;83.90
7754;BME280;3921;42.266;23.122;2023-02-28T09:07:38;96017.50;;;9.65;83.48
7754;BME280;3921;42.266;23.122;2023-02-28T09:10:06;96085.38;;;9.86;83.52
7754;BME280;3921;42.266;23.122;2023-02-28T09:12:35;95751.56;;;8.05;82.68
7754;BME280;3921;42.266;23.122;2023-02-28T09:15:03;96018.28;;;9.57;81.98
7754;BME280;3921;42.266;23.122;2023-02-28T09:17:30;96056.25;;;10.11;82.38
7754;BME280;3921;42.266;23.122;2023-02-28T09:19:58;96251.13;;;11.23;82.29
7754;BME280;3921;42.266;23.122;2023-02-28T09:22:25;96238.56;;;11.25;81.80
7754;BME280;3921;42.266;23.122;2023-02-28T09:25:01;96078.19;;;10.38;81.74
7754;BME280;3921;42.266;23.122;2023-02-28T09:27:28;96184.84;;;11.07;81.80
7754;BME280;3921;42.266;23.122;2023-02-28T09:30:06;96236.91;;;11.33;82.06
7754;BME280;3921;42.266;23.122;2023-02-28T09:32:39;95910.38;;;9.47;81.82
7754;BME280;3921;42.266;23.122;2023-02-28T09:35:09;95681.59;;;8.23;81.21
7754;BME280;3921;42.266;23.122;2023-02-28T09:37:41;96110.16;;;10.82;81.34
7754;BME280;3921;42.266;23.122;2023-02-28T09:40:09;95893.75;;;9.64;80.21
7754;BME280;3921;42.266;23.122;2023-02-28T09:42:38;96084.22;;;10.84;80.32
7754;BME280;3921;42.266;23.122;2023-02-28T09:45:15;96068.25;;;10.75;80.13
7754;BME280;3921;42.266;23.122;2023-02-28T09:47:48;96213.50;;;11.75;79.82
7754;BME280;3921;42.266;23.122;2023-02-28T09:52:51;96007.94;;;10.67;79.13
7754;BME280;3921;42.266;23.122;2023-02-28T09:55:22;96204.34;;;11.82;79.79
7754;BME280;3921;42.266;23.122;2023-02-28T09:57:54;96206.88;;;11.99;79.18
7754;BME280;3921;42.266;23.122;2023-02-28T10:00:28;95872.13;;;10.10;78.62
7754;BME280;3921;42.266;23.122;2023-02-28T10:03:08;96209.34;;;12.14;77.65
7754;BME280;3921;42.266;23.122;2023-02-28T10:05:41;95882.19;;;10.23;77.88
7754;BME280;3921;42.266;23.122;2023-02-28T10:08:14;96215.25;;;12.16;78.94
7754;BME280;3921;42.266;23.122;2023-02-28T10:10:44;96007.13;;;11.17;79.04
7754;BME280;3921;42.266;23.122;2023-02-28T10:13:23;96127.91;;;11.75;78.99
7754;BME280;3921;42.266;23.122;2023-02-28T10:15:56;96157.31;;;12.08;78.53
7754;BME280;3921;42.266;23.122;2023-02-28T10:18:28;96200.94;;;12.32;78.87
7754;BME280;3921;42.266;23.122;2023-02-28T10:20:57;96147.22;;;12.28;79.19
7754;BME280;3921;42.266;23.122;2023-02-28T10:23:28;96197.53;;;12.54;78.11
7754;BME280;3921;42.266;23.122;2023-02-28T10:26:01;96073.34;;;12.11;77.86
7754;BME280;3921;42.266;23.122;2023-02-28T10:28:32;96146.25;;;12.69;77.35
7754;BME280;3921;42.266;23.122;2023-02-28T10:31:01;96085.88;;;12.29;77.20
7754;BME280;3921;42.266;23.122;2023-02-28T10:33:30;95689.69;;;9.99;77.07
7754;BME280;3921;42.266;23.122;2023-02-28T10:35:58;95652.00;;;10.08;77.02
7754;BME280;3921;42.266;23.122;2023-02-28T10:38:28;95811.78;;;11.17;76.92
7754;BME280;3921;42.266;23.122;2023-02-28T10:41:04;96126.66;;;13.24;76.92
7754;BME280;3921;42.266;23.122;2023-02-28T10:43:32;95932.22;;;12.20;75.97
7754;BME280;3921;42.266;23.122;2023-02-28T10:46:11;95863.53;;;11.90;75.18
7754;BME280;3921;42.266;23.122;2023-02-28T10:48:43;96109.59;;;13.60;74.74
7754;BME280;3921;42.266;23.122;2023-02-28T10:51:12;96072.69;;;13.44;73.32
7754;BME280;3921;42.266;23.122;2023-02-28T10:53:48;95879.34;;;12.21;73.25
7754;BME280;3921;42.266;23.122;2023-02-28T10:56:17;96075.06;;;13.62;73.73
7754;BME280;3921;42.266;23.122;2023-02-28T10:58:50;95890.78;;;12.68;72.42
7754;BME280;3921;42.266;23.122;2023-02-28T11:01:21;95901.56;;;12.84;68.41
7754;BME280;3921;42.266;23.122;2023-02-28T11:03:49;96093.22;;;14.02;68.51
7754;BME280;3921;42.266;23.122;2023-02-28T11:06:19;96094.91;;;14.03;68.51
7754;BME280;3921;42.266;23.122;2023-02-28T11:08:52;96094.13;;;13.97;68.64
7754;BME280;3921;42.266;23.122;2023-02-28T11:11:20;95926.50;;;13.19;67.70
7754;BME280;3921;42.266;23.122;2023-02-28T11:13:51;95992.75;;;13.46;67.67
7754;BME280;3921;42.266;23.122;2023-02-28T11:16:21;96077.31;;;13.96;68.50
7754;BME280;3921;42.266;23.122;2023-02-28T11:18:50;95777.75;;;12.18;66.83
7754;BME280;3921;42.266;23.122;2023-02-28T11:21:22;95763.53;;;12.08;67.69
7754;BME280;3921;42.266;23.122;2023-02-28T11:23:52;95765.28;;;12.01;68.36
7754;BME280;3921;42.266;23.122;2023-02-28T11:26:39;96071.47;;;13.89;68.87
7754;BME280;3921;42.266;23.122;2023-02-28T11:29:12;95928.41;;;12.93;68.76
7754;BME280;3921;42.266;23.122;2023-02-28T11:31:42;96014.72;;;13.35;67.99
7754;BME280;3921;42.266;23.122;2023-02-28T11:34:27;96013.84;;;13.39;68.49
7754;BME280;3921;42.266;23.122;2023-02-28T11:36:56;96078.31;;;13.78;68.13
7754;BME280;3921;42.266;23.122;2023-02-28T11:39:25;96034.84;;;13.42;68.82
7754;BME280;3921;42.266;23.122;2023-02-28T11:42:08;95722.06;;;11.26;69.46
7754;BME280;3921;42.266;23.122;2023-02-28T11:44:59;95883.31;;;12.53;69.70
7754;BME280;3921;42.266;23.122;2023-02-28T11:47:38;95992.13;;;13.16;70.07
7754;BME280;3921;42.266;23.122;2023-02-28T11:50:18;96101.13;;;13.64;70.25
7754;BME280;3921;42.266;23.122;2023-02-28T11:52:52;96059.06;;;13.66;69.86
7754;BME280;3921;42.266;23.122;2023-02-28T11:55:23;96014.69;;;13.38;70.26
7754;BME280;3921;42.266;23.122;2023-02-28T11:58:07;95916.81;;;12.69;69.70
7754;BME280;3921;42.266;23.122;2023-02-28T12:00:47;95762.13;;;11.58;69.42
7754;BME280;3921;42.266;23.122;2023-02-28T12:03:33;95751.22;;;11.60;69.42
7754;BME280;3921;42.266;23.122;2023-02-28T12:06:17;96055.00;;;13.47;68.77
7754;BME280;3921;42.266;23.122;2023-02-28T12:09:02;95927.63;;;12.85;69.05
7754;BME280;3921;42.266;23.122;2023-02-28T12:11:41;95652.47;;;11.25;68.72
7754;BME280;3921;42.266;23.122;2023-02-28T12:14:39;96044.75;;;13.65;68.88
7754;BME280;3921;42.266;23.122;2023-02-28T12:17:20;96049.78;;;13.67;68.37
7754;BME280;3921;42.266;23.122;2023-02-28T12:19:58;95777.00;;;12.04;67.97
7754;BME280;3921;42.266;23.122;2023-02-28T12:22:30;95696.03;;;11.33;68.92
7754;BME280;3921;42.266;23.122;2023-02-28T12:28:21;95753.78;;;11.54;69.73
7754;BME280;3921;42.266;23.122;2023-02-28T12:30:56;96060.97;;;13.35;70.07
7754;BME280;3921;42.266;23.122;2023-02-28T12:33:31;95608.38;;;10.61;70.33
7754;BME280;3921;42.266;23.122;2023-02-28T12:36:04;95868.22;;;12.48;69.01
7754;BME280;3921;42.266;23.122;2023-02-28T12:38:37;96059.22;;;13.45;69.07
7754;BME280;3921;42.266;23.122;2023-02-28T12:41:12;95931.19;;;12.58;68.95
7754;BME280;3921;42.266;23.122;2023-02-28T12:43:43;95706.09;;;11.28;69.09
7754;BME280;3921;42.266;23.122;2023-02-28T12:46:15;95893.38;;;12.55;69.11
7754;BME280;3921;42.266;23.122;2023-02-28T12:48:46;95795.56;;;11.93;68.97
7754;BME280;3921;42.266;23.122;2023-02-28T12:51:16;95622.56;;;10.67;68.93
7754;BME280;3921;42.266;23.122;2023-02-28T12:53:54;96047.59;;;13.25;69.52
7754;BME280;3921;42.266;23.122;2023-02-28T12:56:33;95875.97;;;12.19;69.49
7754;BME280;3921;42.266;23.122;2023-02-28T12:59:05;95537.34;;;10.24;69.72
7754;BME280;3921;42.266;23.122;2023-02-28T13:04:58;95984.75;;;12.92;69.15
7754;BME280;3921;42.266;23.122;2023-02-28T13:07:45;96006.50;;;13.03;70.14
7754;BME280;3921;42.266;23.122;2023-02-28T13:10:16;95805.66;;;11.75;69.52
7754;BME280;3921;42.266;23.122;2023-02-28T13:12:48;96019.94;;;13.06;69.60
7754;BME280;3921;42.266;23.122;2023-02-28T13:15:18;95999.00;;;12.94;69.85
7754;BME280;3921;42.266;23.122;2023-02-28T13:17:50;95998.34;;;12.68;69.96
7754;BME280;3921;42.266;23.122;2023-02-28T13:20:20;95913.66;;;12.36;70.13
7754;BME280;3921;42.266;23.122;2023-02-28T13:22:50;96020.88;;;12.92;69.53
7754;BME280;3921;42.266;23.122;2023-02-28T13:25:51;95998.16;;;12.94;69.17
7754;BME280;3921;42.266;23.122;2023-02-28T13:28:57;95998.25;;;12.85;69.70
7754;BME280;3921;42.266;23.122;2023-02-28T13:31:24;95943.81;;;12.52;70.00
7754;BME280;3921;42.266;23.122;2023-02-28T13:34:18;96001.69;;;12.70;70.12
7754;BME280;3921;42.266;23.122;2023-02-28T13:36:46;96010.91;;;12.72;70.01
7754;BME280;3921;42.266;23.122;2023-02-28T13:39:49;96004.25;;;12.64;70.07
7754;BME280;3921;42.266;23.122;2023-02-28T13:42:30;95955.66;;;12.37;70.64
7754;BME280;3921;42.266;23.122;2023-02-28T13:45:25;96010.97;;;12.60;70.22
7754;BME280;3921;42.266;23.122;2023-02-28T13:47:54;95852.75;;;11.55;70.34
7754;BME280;3921;42.266;23.122;2023-02-28T13:50:27;95983.38;;;12.40;69.91
7754;BME280;3921;42.266;23.122;2023-02-28T13:55:53;95966.72;;;12.06;71.03
7754;BME280;3921;42.266;23.122;2023-02-28T13:58:39;95695.53;;;10.37;71.54
7754;BME280;3921;42.266;23.122;2023-02-28T14:01:28;96005.28;;;12.25;71.86